createdAt,value
2018-04-14T00:00:12.376Z,9.33
2018-04-14T00:02:42.125Z,5.10
2018-04-14T00:05:11.049Z,9.47
2018-04-14T00:07:39.965Z,8.97
2018-04-14T00:10:09.690Z,9.80
2018-04-14T00:12:38.621Z,6.00
2018-04-14T00:15:07.570Z,7.60
2018-04-14T00:17:36.548Z,7.57
2018-04-14T00:20:06.250Z,6.97
2018-04-14T00:22:35.990Z,10.03
2018-04-14T00:25:04.907Z,8.23
2018-04-14T00:27:33.776Z,7.67
2018-04-14T00:30:02.713Z,5.87
2018-04-14T00:32:31.697Z,8.70
2018-04-14T00:35:00.590Z,9.63
2018-04-14T00:37:29.502Z,8.90
2018-04-14T00:39:59.269Z,7.10
2018-04-14T00:42:28.147Z,7.47
2018-04-14T00:44:57.074Z,7.00
2018-04-14T00:47:26.001Z,7.23
2018-04-14T00:49:54.908Z,8.40
2018-04-14T00:52:23.797Z,9.27
2018-04-14T00:54:52.723Z,5.87
2018-04-14T00:57:21.677Z,7.60
2018-04-14T00:59:50.610Z,6.77
2018-04-14T01:02:19.603Z,5.47
2018-04-14T01:04:48.546Z,8.63
2018-04-14T01:07:17.477Z,6.57
2018-04-14T01:09:46.431Z,9.27
2018-04-14T01:12:15.324Z,5.67
2018-04-14T01:14:44.217Z,5.87
2018-04-14T01:17:13.149Z,4.83
2018-04-14T01:19:42.085Z,7.23
2018-04-14T01:22:10.986Z,5.57
2018-04-14T01:24:39.937Z,9.00
2018-04-14T01:27:08.861Z,6.47
2018-04-14T01:29:38.601Z,5.10
2018-04-14T01:32:07.580Z,4.23
2018-04-14T01:34:36.533Z,3.63
2018-04-14T01:37:06.308Z,5.10
2018-04-14T01:39:35.223Z,2.53
2018-04-14T01:42:04.128Z,7.17
2018-04-14T01:44:33.055Z,4.80
2018-04-14T01:47:02.055Z,4.03
2018-04-14T01:49:31.033Z,8.80
2018-04-14T01:51:59.977Z,7.00
2018-04-14T01:54:28.925Z,5.87
2018-04-14T01:56:57.863Z,3.00
2018-04-14T01:59:26.817Z,5.10
2018-04-14T02:01:55.723Z,4.10
2018-04-14T02:04:24.638Z,6.27
2018-04-14T02:06:53.576Z,9.63
2018-04-14T02:09:22.476Z,3.97
2018-04-14T02:11:51.415Z,5.30
2018-04-14T02:14:20.305Z,6.13
2018-04-14T02:16:49.265Z,4.50
2018-04-14T02:19:18.239Z,2.60
2018-04-14T02:21:47.122Z,5.20
2018-04-14T02:24:16.107Z,5.13
2018-04-14T02:26:45.026Z,3.93
2018-04-14T02:29:13.974Z,6.60
2018-04-14T02:31:42.923Z,3.80
2018-04-14T02:34:11.843Z,2.80
2018-04-14T02:36:40.755Z,5.47
2018-04-14T02:39:10.470Z,2.80
2018-04-14T02:41:39.343Z,4.27
2018-04-14T02:44:09.022Z,7.90
2018-04-14T02:46:37.984Z,6.53
2018-04-14T02:49:12.661Z,5.73
2018-04-14T02:51:42.407Z,4.40
2018-04-14T02:54:11.389Z,5.93
2018-04-14T02:56:40.321Z,3.53
2018-04-14T02:59:09.226Z,3.30
2018-04-14T03:01:38.227Z,4.33
2018-04-14T03:04:07.128Z,6.43
2018-04-14T03:06:36.082Z,3.70
2018-04-14T03:09:05.898Z,7.00
2018-04-14T03:11:34.826Z,3.10
2018-04-14T03:14:03.744Z,3.57
2018-04-14T03:16:32.613Z,4.30
2018-04-14T03:19:02.259Z,8.27
2018-04-14T03:21:31.186Z,5.00
2018-04-14T03:24:00.052Z,7.93
2018-04-14T03:26:28.937Z,6.53
2018-04-14T03:28:57.901Z,5.70
2018-04-14T03:31:26.829Z,8.97
2018-04-14T03:33:55.723Z,4.80
2018-04-14T03:36:24.650Z,3.77
2018-04-14T03:38:54.308Z,5.63
2018-04-14T03:41:23.214Z,7.03
2018-04-14T03:43:52.119Z,5.97
2018-04-14T03:46:21.022Z,9.87
2018-04-14T03:48:49.926Z,4.47
2018-04-14T03:51:18.860Z,3.90
2018-04-14T03:53:47.755Z,13.17
2018-04-14T03:56:16.671Z,6.67
2018-04-14T03:58:45.637Z,6.30
2018-04-14T04:01:14.522Z,9.00
2018-04-14T04:03:43.486Z,4.80
2018-04-14T04:06:12.392Z,7.90
2018-04-14T04:08:41.323Z,8.50
2018-04-14T04:11:10.255Z,12.30
2018-04-14T04:13:39.944Z,8.37
2018-04-14T04:16:08.875Z,8.20
2018-04-14T04:18:55.613Z,8.57
2018-04-14T04:21:42.167Z,9.10
2018-04-14T04:24:30.617Z,7.43
2018-04-14T04:26:59.593Z,9.27
2018-04-14T04:29:29.353Z,7.50
2018-04-14T04:31:58.268Z,10.80
2018-04-14T04:34:27.190Z,13.27
2018-04-14T04:36:56.950Z,7.20
2018-04-14T04:39:25.913Z,4.33
2018-04-14T04:41:54.844Z,6.63
2018-04-14T04:44:23.756Z,3.53
2018-04-14T04:46:52.703Z,7.27
2018-04-14T04:49:21.613Z,5.57
2018-04-14T04:51:50.476Z,4.30
2018-04-14T04:54:19.478Z,4.13
2018-04-14T04:56:48.384Z,6.87
2018-04-14T04:59:17.316Z,6.43
2018-04-14T05:01:46.264Z,7.57
2018-04-14T05:04:15.245Z,4.10
2018-04-14T05:06:44.164Z,8.80
2018-04-14T05:09:13.133Z,5.43
2018-04-14T05:11:42.057Z,6.00
2018-04-14T05:14:10.953Z,3.83
2018-04-14T05:16:43.417Z,4.10
2018-04-14T05:19:12.445Z,4.80
2018-04-14T05:21:41.319Z,8.23
2018-04-14T05:24:11.102Z,7.67
2018-04-14T05:26:39.966Z,6.47
2018-04-14T05:29:08.863Z,11.13
2018-04-14T05:31:37.850Z,11.00
2018-04-14T05:34:06.768Z,6.67
2018-04-14T05:36:35.702Z,4.27
2018-04-14T05:39:06.352Z,2.60
2018-04-14T05:41:35.257Z,2.90
2018-04-14T05:44:04.157Z,5.30
2018-04-14T05:46:33.098Z,4.93
2018-04-14T05:49:02.728Z,2.87
2018-04-14T05:51:31.651Z,3.87
2018-04-14T05:54:00.571Z,4.57
2018-04-14T05:56:29.494Z,3.37
2018-04-14T05:58:58.397Z,3.87
2018-04-14T06:01:27.377Z,8.80
2018-04-14T06:03:56.326Z,2.77
2018-04-14T06:06:25.279Z,6.07
2018-04-14T06:08:54.248Z,4.73
2018-04-14T06:11:23.139Z,5.87
2018-04-14T06:13:52.011Z,4.77
2018-04-14T06:16:21.745Z,7.73
2018-04-14T06:18:50.640Z,5.80
2018-04-14T06:21:19.528Z,4.50
2018-04-14T06:23:48.448Z,2.33
2018-04-14T06:26:17.395Z,3.73
2018-04-14T06:28:46.309Z,3.03
2018-04-14T06:31:15.286Z,4.80
2018-04-14T06:33:44.227Z,9.23
2018-04-14T06:36:13.127Z,3.03
2018-04-14T06:38:42.096Z,3.57
2018-04-14T06:41:11.002Z,4.80
2018-04-14T06:43:39.918Z,4.97
2018-04-14T06:46:09.612Z,4.57
2018-04-14T06:48:39.548Z,3.33
2018-04-14T06:51:09.271Z,3.80
2018-04-14T06:53:38.915Z,3.77
2018-04-14T06:56:07.805Z,2.60
2018-04-14T06:58:36.716Z,5.53
2018-04-14T07:01:05.629Z,12.13
2018-04-14T07:03:35.349Z,6.03
2018-04-14T07:06:04.292Z,5.07
2018-04-14T07:08:33.290Z,4.97
2018-04-14T07:11:02.254Z,4.87
2018-04-14T07:13:31.301Z,4.27
2018-04-14T07:16:00.231Z,7.20
2018-04-14T07:18:29.157Z,5.40
2018-04-14T07:20:58.071Z,6.30
2018-04-14T07:23:26.973Z,3.13
2018-04-14T07:25:56.408Z,5.37
2018-04-14T07:28:25.400Z,4.23
2018-04-14T07:30:54.347Z,3.50
2018-04-14T07:33:23.311Z,4.27
2018-04-14T07:35:52.284Z,6.50
2018-04-14T07:38:21.257Z,5.57
2018-04-14T07:40:50.156Z,6.97
2018-04-14T07:43:19.100Z,5.87
2018-04-14T07:45:48.045Z,6.03
2018-04-14T07:48:17.006Z,6.07
2018-04-14T07:50:46.760Z,3.93
2018-04-14T07:53:15.665Z,3.93
2018-04-14T07:55:44.600Z,5.83
2018-04-14T07:58:14.359Z,7.03
2018-04-14T08:00:43.318Z,5.73
2018-04-14T08:03:12.280Z,5.50
2018-04-14T08:05:41.292Z,4.70
2018-04-14T08:08:11.031Z,3.77
2018-04-14T08:10:40.116Z,3.03
2018-04-14T08:13:09.109Z,4.70
2018-04-14T08:15:38.102Z,5.67
2018-04-14T08:18:07.090Z,4.67
2018-04-14T08:20:36.068Z,3.17
2018-04-14T08:23:05.793Z,6.83
2018-04-14T08:25:34.744Z,5.33
2018-04-14T08:28:03.683Z,6.80
2018-04-14T08:30:32.621Z,3.97
2018-04-14T08:33:01.586Z,6.00
2018-04-14T08:35:30.649Z,4.80
2018-04-14T08:37:59.651Z,9.27
2018-04-14T08:40:28.620Z,8.40
2018-04-14T08:42:57.571Z,3.57
2018-04-14T08:45:26.503Z,4.77
2018-04-14T08:47:55.438Z,5.23
2018-04-14T08:50:24.410Z,7.67
2018-04-14T08:52:53.343Z,4.17
2018-04-14T08:55:22.358Z,3.73
2018-04-14T08:57:52.083Z,4.53
2018-04-14T09:00:21.087Z,2.93
2018-04-14T09:02:50.052Z,4.10
2018-04-14T09:05:19.797Z,3.33
2018-04-14T09:07:48.799Z,5.07
2018-04-14T09:10:17.712Z,5.87
2018-04-14T09:12:46.790Z,4.43
2018-04-14T09:15:16.588Z,7.30
2018-04-14T09:17:45.510Z,5.10
2018-04-14T09:20:14.527Z,2.67
2018-04-14T09:22:43.509Z,4.37
2018-04-14T09:25:12.454Z,4.53
2018-04-14T09:27:41.443Z,2.10
2018-04-14T09:30:10.441Z,2.77
2018-04-14T09:32:39.559Z,3.13
2018-04-14T09:35:08.490Z,2.07
2018-04-14T09:37:37.440Z,4.77
2018-04-14T09:40:06.607Z,3.03
2018-04-14T09:42:36.445Z,2.57
2018-04-14T09:45:05.427Z,2.87
2018-04-14T09:47:34.345Z,2.50
2018-04-14T09:50:03.265Z,3.87
2018-04-14T09:52:32.220Z,5.30
2018-04-14T09:55:01.140Z,4.27
2018-04-14T09:57:30.053Z,3.03
2018-04-14T09:59:59.700Z,7.77
2018-04-14T10:02:34.958Z,3.63
2018-04-14T10:05:03.873Z,1.83
2018-04-14T10:07:32.815Z,2.67
2018-04-14T10:10:01.705Z,2.83
2018-04-14T10:12:30.593Z,2.67
2018-04-14T10:14:59.621Z,2.03
2018-04-14T10:17:28.578Z,1.93
2018-04-14T10:19:57.491Z,1.97
2018-04-14T10:22:26.448Z,1.70
2018-04-14T10:24:55.344Z,4.10
2018-04-14T10:27:24.279Z,1.10
2018-04-14T10:29:53.159Z,1.90
2018-04-14T10:32:22.172Z,3.23
2018-04-14T10:34:51.063Z,0.60
2018-04-14T10:37:19.941Z,1.47
2018-04-14T10:39:48.960Z,0.70
2018-04-14T10:42:17.854Z,1.20
2018-04-14T10:44:47.496Z,0.67
2018-04-14T10:47:16.463Z,1.30
2018-04-14T10:49:45.398Z,1.00
2018-04-14T10:52:14.316Z,3.63
2018-04-14T10:54:43.350Z,0.90
2018-04-14T10:57:12.250Z,2.13
2018-04-14T10:59:57.981Z,1.13
2018-04-14T11:02:28.801Z,2.20
2018-04-14T11:04:57.737Z,1.90
2018-04-14T11:07:27.524Z,2.23
2018-04-14T11:09:56.449Z,2.83
2018-04-14T11:12:25.360Z,1.37
2018-04-14T11:14:54.273Z,1.53
2018-04-14T11:17:23.246Z,1.47
2018-04-14T11:19:52.174Z,0.47
2018-04-14T11:22:21.116Z,0.87
2018-04-14T11:27:25.954Z,2.87
2018-04-14T11:29:54.915Z,0.97
2018-04-14T11:32:23.845Z,0.60
2018-04-14T11:34:52.766Z,1.40
2018-04-14T11:37:21.745Z,1.63
2018-04-14T11:39:50.675Z,1.13
2018-04-14T11:42:19.540Z,1.30
2018-04-14T11:44:48.505Z,2.23
2018-04-14T11:47:17.391Z,0.77
2018-04-14T11:49:46.306Z,0.40
2018-04-14T11:52:15.261Z,1.47
2018-04-14T11:54:44.883Z,0.90
2018-04-14T11:57:13.860Z,1.40
2018-04-14T11:59:42.750Z,0.73
2018-04-14T12:02:11.669Z,0.67
2018-04-14T12:04:40.611Z,0.50
2018-04-14T12:07:10.361Z,0.80
2018-04-14T12:09:39.284Z,2.00
2018-04-14T12:12:08.218Z,0.73
2018-04-14T12:14:37.189Z,3.90
2018-04-14T12:17:06.096Z,4.47
2018-04-14T12:19:35.814Z,0.67
2018-04-14T12:22:04.760Z,1.73
2018-04-14T12:24:33.696Z,1.07
2018-04-14T12:27:03.339Z,1.20
2018-04-14T12:29:32.306Z,3.23
2018-04-14T12:32:01.237Z,5.43
2018-04-14T12:34:30.190Z,1.27
2018-04-14T12:36:59.161Z,1.07
2018-04-14T12:39:28.081Z,2.67
2018-04-14T12:41:57.017Z,4.30
2018-04-14T12:44:25.985Z,2.20
2018-04-14T12:46:54.932Z,1.23
2018-04-14T12:49:24.588Z,4.17
2018-04-14T12:51:53.500Z,5.30
2018-04-14T12:54:22.400Z,3.13
2018-04-14T12:56:51.292Z,1.70
2018-04-14T12:59:20.253Z,2.10
2018-04-14T13:01:49.190Z,8.17
2018-04-14T13:04:18.876Z,3.07
2018-04-14T13:06:47.792Z,4.50
2018-04-14T13:09:17.485Z,1.97
2018-04-14T13:11:46.415Z,1.90
2018-04-14T13:14:16.115Z,0.70
2018-04-14T13:16:45.032Z,0.80
2018-04-14T13:19:13.956Z,1.27
2018-04-14T13:21:42.972Z,1.37
2018-04-14T13:24:12.658Z,2.80
2018-04-14T13:26:41.559Z,0.87
2018-04-14T13:29:10.513Z,1.50
2018-04-14T13:31:39.470Z,2.30
2018-04-14T13:34:08.421Z,2.67
2018-04-14T13:36:37.352Z,3.80
2018-04-14T13:39:06.262Z,1.70
2018-04-14T13:41:35.156Z,1.27
2018-04-14T13:44:04.036Z,1.77
2018-04-14T13:46:32.956Z,1.13
2018-04-14T13:49:01.882Z,2.30
2018-04-14T13:51:31.746Z,0.90
2018-04-14T13:54:00.627Z,1.40
2018-04-14T13:56:29.522Z,1.93
2018-04-14T13:58:59.229Z,2.30
2018-04-14T14:01:28.205Z,0.37
2018-04-14T14:03:57.130Z,0.60
2018-04-14T14:06:26.114Z,2.97
2018-04-14T14:08:54.996Z,1.80
2018-04-14T14:11:24.695Z,1.77
2018-04-14T14:13:53.726Z,2.63
2018-04-14T14:16:22.674Z,1.83
2018-04-14T14:18:51.642Z,1.57
2018-04-14T14:21:21.388Z,1.77
2018-04-14T14:23:50.363Z,1.00
2018-04-14T14:26:19.281Z,2.50
2018-04-14T14:28:48.313Z,1.07
2018-04-14T14:31:17.245Z,1.80
2018-04-14T14:33:46.186Z,0.83
2018-04-14T14:36:15.096Z,0.53
2018-04-14T14:38:43.971Z,2.47
2018-04-14T14:41:12.865Z,1.17
2018-04-14T14:43:41.810Z,7.60
2018-04-14T14:46:10.709Z,1.10
2018-04-14T14:48:39.690Z,1.70
2018-04-14T14:51:09.405Z,2.03
2018-04-14T14:53:38.292Z,1.73
2018-04-14T14:56:07.981Z,0.90
2018-04-14T14:58:36.954Z,2.03
2018-04-14T15:01:06.615Z,2.43
2018-04-14T15:03:35.504Z,3.30
2018-04-14T15:06:04.436Z,1.27
2018-04-14T15:08:33.373Z,2.20
2018-04-14T15:11:02.305Z,2.67
2018-04-14T15:13:31.233Z,2.50
2018-04-14T15:16:00.892Z,2.47
2018-04-14T15:18:29.772Z,3.80
2018-04-14T15:20:58.687Z,1.20
2018-04-14T15:23:27.610Z,1.40
2018-04-14T15:25:56.564Z,2.90
2018-04-14T15:28:25.511Z,3.90
2018-04-14T15:30:54.461Z,2.70
2018-04-14T15:33:23.388Z,3.93
2018-04-14T15:35:52.358Z,2.60
2018-04-14T15:38:22.060Z,1.80
2018-04-14T15:40:51.762Z,2.83
2018-04-14T15:43:20.701Z,1.73
2018-04-14T15:45:49.631Z,2.50
2018-04-14T15:48:18.553Z,4.60
2018-04-14T15:50:48.244Z,3.13
2018-04-14T15:53:17.159Z,1.60
2018-04-14T15:55:46.808Z,1.77
2018-04-14T15:58:15.768Z,2.57
2018-04-14T16:00:44.715Z,1.10
2018-04-14T16:03:13.706Z,3.23
2018-04-14T16:05:43.423Z,4.30
2018-04-14T16:08:12.299Z,1.93
2018-04-14T16:10:41.232Z,1.80
2018-04-14T16:13:10.977Z,1.93
2018-04-14T16:15:39.867Z,1.70
2018-04-14T16:18:08.767Z,1.20
2018-04-14T16:20:37.741Z,2.37
2018-04-14T16:23:06.684Z,1.57
2018-04-14T16:25:36.443Z,0.93
2018-04-14T16:28:06.280Z,1.57
2018-04-14T16:30:35.196Z,2.67
2018-04-14T16:33:34.407Z,4.93
2018-04-14T16:39:14.064Z,3.83
2018-04-14T16:41:43.002Z,2.57
2018-04-14T16:44:11.913Z,6.43
2018-04-14T16:46:40.837Z,1.60
2018-04-14T16:49:09.783Z,3.97
2018-04-14T16:51:38.736Z,5.27
2018-04-14T16:54:08.432Z,3.17
2018-04-14T16:56:38.141Z,3.30
2018-04-14T16:59:07.836Z,1.93
2018-04-14T17:01:36.790Z,2.83
2018-04-14T17:04:05.684Z,2.90
2018-04-14T17:06:34.640Z,2.00
2018-04-14T17:09:04.415Z,1.77
2018-04-14T17:11:33.401Z,1.67
2018-04-14T17:14:02.350Z,3.03
2018-04-14T17:16:31.312Z,1.77
2018-04-14T17:19:00.984Z,1.67
2018-04-14T17:21:29.897Z,2.20
2018-04-14T17:23:58.844Z,1.40
2018-04-14T17:26:27.760Z,2.57
2018-04-14T17:28:56.820Z,3.07
2018-04-14T17:31:25.776Z,2.83
2018-04-14T17:33:55.515Z,1.30
2018-04-14T17:36:24.479Z,3.47
2018-04-14T17:38:54.212Z,4.47
2018-04-14T17:41:23.932Z,2.93
2018-04-14T17:43:52.836Z,4.13
2018-04-14T17:46:25.681Z,3.17
2018-04-14T17:48:55.357Z,6.03
2018-04-14T17:51:24.348Z,4.33
2018-04-14T17:53:53.294Z,3.07
2018-04-14T17:56:22.229Z,6.00
2018-04-14T17:58:51.166Z,4.80
2018-04-14T18:01:20.912Z,5.13
2018-04-14T18:03:49.816Z,2.63
2018-04-14T18:06:18.783Z,5.70
2018-04-14T18:08:47.770Z,3.07
2018-04-14T18:11:16.700Z,4.10
2018-04-14T18:13:45.718Z,6.07
2018-04-14T18:16:14.619Z,4.00
2018-04-14T18:18:44.314Z,7.57
2018-04-14T18:21:13.281Z,8.90
2018-04-14T18:23:42.781Z,5.63
2018-04-14T18:26:11.703Z,7.67
2018-04-14T18:28:41.677Z,6.60
2018-04-14T18:31:10.865Z,9.13
2018-04-14T18:36:24.225Z,8.80
2018-04-14T18:38:53.222Z,5.13
2018-04-14T18:41:22.173Z,4.13
2018-04-14T18:43:51.895Z,7.27
2018-04-14T18:46:20.864Z,7.03
2018-04-14T18:48:50.565Z,8.50
2018-04-14T18:51:20.555Z,8.30
2018-04-14T18:53:49.294Z,7.77
2018-04-14T18:56:18.286Z,5.43
2018-04-14T18:58:47.258Z,9.77
2018-04-14T19:01:16.970Z,5.80
2018-04-14T19:03:46.699Z,11.07
2018-04-14T19:06:15.629Z,8.63
2018-04-14T19:08:44.619Z,8.37
2018-04-14T19:11:13.567Z,8.70
2018-04-14T19:13:42.492Z,8.20
2018-04-14T19:16:11.477Z,11.77
2018-04-14T19:18:40.470Z,10.13
2018-04-14T19:21:09.471Z,9.47
2018-04-14T19:23:38.471Z,7.30
2018-04-14T19:26:07.543Z,13.37
2018-04-14T19:28:37.707Z,14.87
2018-04-14T19:31:07.438Z,15.13
2018-04-14T19:33:43.354Z,14.77
2018-04-14T19:36:12.331Z,15.33
2018-04-14T19:38:52.017Z,12.70
2018-04-14T19:41:34.093Z,16.80
2018-04-14T19:44:05.297Z,17.93
2018-04-14T19:46:37.100Z,15.70
2018-04-14T19:49:06.085Z,14.03
2018-04-14T19:51:34.996Z,15.77
2018-04-14T19:54:03.915Z,16.30
2018-04-14T19:56:34.452Z,14.67
2018-04-14T19:59:03.372Z,15.87
2018-04-14T20:01:32.272Z,11.93
2018-04-14T20:04:01.247Z,17.60
2018-04-14T20:06:31.087Z,14.90
2018-04-14T20:09:00.039Z,11.27
2018-04-14T20:11:29.054Z,11.07
2018-04-14T20:13:58.018Z,9.87
2018-04-14T20:16:26.955Z,12.57
2018-04-14T20:18:55.916Z,10.87
2018-04-14T20:21:24.858Z,13.00
2018-04-14T20:23:54.526Z,11.47
2018-04-14T20:26:23.506Z,14.07
2018-04-14T20:28:52.404Z,10.00
2018-04-14T20:31:21.942Z,11.17
2018-04-14T20:33:59.524Z,11.27
2018-04-14T20:36:28.498Z,14.27
2018-04-14T20:38:57.380Z,13.73
2018-04-14T20:41:26.372Z,10.37
2018-04-14T20:43:55.299Z,11.53
2018-04-14T20:46:24.237Z,10.63
2018-04-14T20:48:53.231Z,10.37
2018-04-14T20:51:22.115Z,7.73
2018-04-14T20:53:51.047Z,7.67
2018-04-14T20:56:20.020Z,16.43
2018-04-14T20:58:48.933Z,11.83
2018-04-14T21:01:17.920Z,7.87
2018-04-14T21:03:46.844Z,6.50
2018-04-14T21:06:15.747Z,7.10
2018-04-14T21:08:45.416Z,9.73
2018-04-14T21:11:14.371Z,8.53
2018-04-14T21:13:43.277Z,8.23
2018-04-14T21:16:12.206Z,10.20
2018-04-14T21:18:48.729Z,7.20
2018-04-14T21:21:17.712Z,7.27
2018-04-14T21:23:46.649Z,9.60
2018-04-14T21:26:15.633Z,6.90
2018-04-14T21:28:44.745Z,8.13
2018-04-14T21:31:13.652Z,10.53
2018-04-14T21:33:42.617Z,11.67
2018-04-14T21:36:11.682Z,6.90
2018-04-14T21:38:40.614Z,6.60
2018-04-14T21:41:09.595Z,5.47
2018-04-14T21:43:38.488Z,7.20
2018-04-14T21:46:07.411Z,7.47
2018-04-14T21:48:36.284Z,5.83
2018-04-14T21:51:05.230Z,5.00
2018-04-14T21:53:34.181Z,4.53
2018-04-14T21:56:03.865Z,6.67
2018-04-14T21:58:32.834Z,9.10
2018-04-14T22:01:01.745Z,6.07
2018-04-14T22:03:30.706Z,4.47
2018-04-14T22:05:59.704Z,4.90
2018-04-14T22:08:28.600Z,8.23
2018-04-14T22:10:57.527Z,8.93
2018-04-14T22:13:26.490Z,8.30
2018-04-14T22:15:55.429Z,6.43
2018-04-14T22:18:25.140Z,5.80
2018-04-14T22:20:54.829Z,7.20
2018-04-14T22:23:23.776Z,4.97
2018-04-14T22:25:52.678Z,4.97
2018-04-14T22:28:21.643Z,5.50
2018-04-14T22:30:50.581Z,6.07
2018-04-14T22:33:19.526Z,5.27
2018-04-14T22:35:48.464Z,8.83
2018-04-14T22:38:17.408Z,3.83
2018-04-14T22:40:46.356Z,4.53
2018-04-14T22:43:15.318Z,3.50
2018-04-14T22:45:44.267Z,11.13
2018-04-14T22:48:13.181Z,5.90
2018-04-14T22:50:42.158Z,3.90
2018-04-14T22:53:11.062Z,5.47
2018-04-14T22:55:39.993Z,5.50
2018-04-14T22:58:08.959Z,9.67
2018-04-14T23:00:37.897Z,8.13
2018-04-14T23:03:06.867Z,4.70
2018-04-14T23:05:35.806Z,4.67
2018-04-14T23:08:04.700Z,10.83
2018-04-14T23:10:33.622Z,8.47
2018-04-14T23:13:02.598Z,5.00
2018-04-14T23:15:31.532Z,7.43
2018-04-14T23:18:00.454Z,8.70
2018-04-14T23:20:29.367Z,11.47
2018-04-14T23:22:58.303Z,3.30
2018-04-14T23:25:27.245Z,6.83
2018-04-14T23:27:56.155Z,5.20
2018-04-14T23:30:25.151Z,6.70
2018-04-14T23:32:54.044Z,5.77
2018-04-14T23:35:22.996Z,3.70
2018-04-14T23:37:51.908Z,10.23
2018-04-14T23:40:21.676Z,7.47
2018-04-14T23:42:51.551Z,6.57
2018-04-14T23:45:20.436Z,5.80
2018-04-14T23:47:49.342Z,6.87
2018-04-14T23:50:18.277Z,4.37
2018-04-14T23:52:47.174Z,7.07
2018-04-14T23:55:16.104Z,13.53
2018-04-14T23:57:45.084Z,6.67
